sensor_id;sensor_type;location;lat;lon;timestamp;pressure;altitude;pressure_sealevel;temperature;humidity
5679;BME280;2862;52.560;13.566;2023-04-05T00:06:52;101602.78;;;2.17;60.98
5679;BME280;2862;52.560;13.566;2023-04-05T00:16:55;101598.91;;;2.02;60.84
5679;BME280;2862;52.560;13.566;2023-04-05T00:27:00;101594.72;;;1.96;61.10
5679;BME280;2862;52.560;13.566;2023-04-05T00:37:03;101591.22;;;1.96;59.97
5679;BME280;2862;52.560;13.566;2023-04-05T00:47:09;101581.75;;;1.90;60.50
5679;BME280;2862;52.560;13.566;2023-04-05T00:57:12;101579.03;;;1.92;60.88
5679;BME280;2862;52.560;13.566;2023-04-05T01:07:23;101579.97;;;1.91;59.42
5679;BME280;2862;52.560;13.566;2023-04-05T01:17:29;101563.78;;;1.75;61.56
5679;BME280;2862;52.560;13.566;2023-04-05T01:27:55;101573.00;;;1.88;60.49
5679;BME280;2862;52.560;13.566;2023-04-05T01:38:08;101562.31;;;1.93;60.94
5679;BME280;2862;52.560;13.566;2023-04-05T01:48:14;101569.06;;;2.01;60.50
5679;BME280;2862;52.560;13.566;2023-04-05T01:58:18;101561.34;;;2.20;59.94
5679;BME280;2862;52.560;13.566;2023-04-05T02:08:21;101547.72;;;2.32;60.61
5679;BME280;2862;52.560;13.566;2023-04-05T02:18:26;101555.56;;;2.34;61.48
5679;BME280;2862;52.560;13.566;2023-04-05T02:28:32;101542.28;;;2.37;60.27
5679;BME280;2862;52.560;13.566;2023-04-05T02:38:36;101522.22;;;2.56;59.08
5679;BME280;2862;52.560;13.566;2023-04-05T02:48:39;101519.09;;;2.69;57.66
5679;BME280;2862;52.560;13.566;2023-04-05T02:58:47;101520.63;;;2.76;58.78
5679;BME280;2862;52.560;13.566;2023-04-05T03:08:56;101512.38;;;2.83;59.62
5679;BME280;2862;52.560;13.566;2023-04-05T03:19:02;101510.06;;;2.76;60.89
5679;BME280;2862;52.560;13.566;2023-04-05T03:29:09;101511.00;;;2.73;61.26
5679;BME280;2862;52.560;13.566;2023-04-05T03:39:14;101502.84;;;2.79;62.64
5679;BME280;2862;52.560;13.566;2023-04-05T03:49:17;101499.59;;;2.73;62.87
5679;BME280;2862;52.560;13.566;2023-04-05T03:59:22;101500.06;;;2.60;62.65
5679;BME280;2862;52.560;13.566;2023-04-05T04:09:25;101502.31;;;2.48;63.74
5679;BME280;2862;52.560;13.566;2023-04-05T04:19:39;101480.66;;;2.61;63.21
5679;BME280;2862;52.560;13.566;2023-04-05T04:29:58;101496.81;;;2.54;64.16
5679;BME280;2862;52.560;13.566;2023-04-05T04:40:10;101505.56;;;2.54;64.95
5679;BME280;2862;52.560;13.566;2023-04-05T04:50:39;101496.59;;;2.35;66.86
5679;BME280;2862;52.560;13.566;2023-04-05T05:00:44;101500.16;;;2.57;66.42
5679;BME280;2862;52.560;13.566;2023-04-05T05:10:50;101489.28;;;2.66;66.71
5679;BME280;2862;52.560;13.566;2023-04-05T05:20:55;101494.25;;;2.74;66.15
5679;BME280;2862;52.560;13.566;2023-04-05T05:30:58;101491.19;;;2.85;66.51
5679;BME280;2862;52.560;13.566;2023-04-05T05:41:03;101478.50;;;3.16;65.27
5679;BME280;2862;52.560;13.566;2023-04-05T05:51:06;101473.41;;;3.54;64.44
5679;BME280;2862;52.560;13.566;2023-04-05T06:01:11;101490.97;;;3.35;65.18
5679;BME280;2862;52.560;13.566;2023-04-05T06:11:18;101480.97;;;3.63;63.91
5679;BME280;2862;52.560;13.566;2023-04-05T06:21:23;101492.72;;;3.56;65.00
5679;BME280;2862;52.560;13.566;2023-04-05T06:31:31;101489.00;;;4.21;64.08
5679;BME280;2862;52.560;13.566;2023-04-05T06:41:36;101469.53;;;5.88;63.15
5679;BME280;2862;52.560;13.566;2023-04-05T06:51:38;101463.63;;;6.33;64.64
5679;BME280;2862;52.560;13.566;2023-04-05T07:01:43;101462.25;;;6.42;58.58
5679;BME280;2862;52.560;13.566;2023-04-05T07:11:46;101482.09;;;6.68;56.29
5679;BME280;2862;52.560;13.566;2023-04-05T07:21:50;101472.16;;;7.18;55.68
5679;BME280;2862;52.560;13.566;2023-04-05T07:31:53;101480.22;;;7.17;55.92
5679;BME280;2862;52.560;13.566;2023-04-05T07:41:57;101474.13;;;9.45;50.32
5679;BME280;2862;52.560;13.566;2023-04-05T07:52:01;101470.16;;;9.77;47.72
5679;BME280;2862;52.560;13.566;2023-04-05T08:02:05;101475.91;;;9.04;49.80
5679;BME280;2862;52.560;13.566;2023-04-05T08:12:14;101471.00;;;8.84;48.30
5679;BME280;2862;52.560;13.566;2023-04-05T08:22:18;101474.28;;;8.46;48.67
5679;BME280;2862;52.560;13.566;2023-04-05T08:32:21;101470.41;;;8.93;44.56
5679;BME280;2862;52.560;13.566;2023-04-05T08:42:28;101482.25;;;8.32;46.43
5679;BME280;2862;52.560;13.566;2023-04-05T08:52:34;101477.06;;;7.86;50.05
5679;BME280;2862;52.560;13.566;2023-04-05T09:02:42;101474.44;;;7.70;50.63
5679;BME280;2862;52.560;13.566;2023-04-05T09:12:46;101473.75;;;7.67;50.92
5679;BME280;2862;52.560;13.566;2023-04-05T09:22:51;101467.84;;;7.92;49.24
5679;BME280;2862;52.560;13.566;2023-04-05T09:32:55;101470.13;;;7.38;50.63
5679;BME280;2862;52.560;13.566;2023-04-05T09:43:00;101474.69;;;7.52;51.78
5679;BME280;2862;52.560;13.566;2023-04-05T09:53:08;101467.00;;;8.06;48.24
5679;BME280;2862;52.560;13.566;2023-04-05T10:03:12;101463.31;;;8.37;47.18
5679;BME280;2862;52.560;13.566;2023-04-05T10:13:16;101454.44;;;7.93;50.26
5679;BME280;2862;52.560;13.566;2023-04-05T10:23:25;101458.47;;;8.58;49.91
5679;BME280;2862;52.560;13.566;2023-04-05T10:33:34;101459.28;;;7.57;53.11
5679;BME280;2862;52.560;13.566;2023-04-05T10:43:44;101457.50;;;7.57;53.80
5679;BME280;2862;52.560;13.566;2023-04-05T10:53:48;101446.97;;;8.98;51.11
5679;BME280;2862;52.560;13.566;2023-04-05T11:03:53;101448.78;;;9.65;47.61
5679;BME280;2862;52.560;13.566;2023-04-05T11:13:57;101438.72;;;9.16;49.38
5679;BME280;2862;52.560;13.566;2023-04-05T11:24:04;101429.88;;;8.74;51.75
5679;BME280;2862;52.560;13.566;2023-04-05T11:34:07;101423.44;;;8.64;51.98
5679;BME280;2862;52.560;13.566;2023-04-05T11:44:14;101427.44;;;8.42;51.30
5679;BME280;2862;52.560;13.566;2023-04-05T11:54:29;101419.63;;;8.54;51.37
5679;BME280;2862;52.560;13.566;2023-04-05T12:04:34;101419.06;;;8.48;51.75
5679;BME280;2862;52.560;13.566;2023-04-05T12:14:38;101408.84;;;8.69;49.84
5679;BME280;2862;52.560;13.566;2023-04-05T12:24:43;101409.00;;;8.39;48.76
5679;BME280;2862;52.560;13.566;2023-04-05T12:34:46;101388.81;;;8.49;49.63
5679;BME280;2862;52.560;13.566;2023-04-05T12:45:03;101383.03;;;8.14;50.61
5679;BME280;2862;52.560;13.566;2023-04-05T12:55:14;101390.25;;;8.41;49.38
5679;BME280;2862;52.560;13.566;2023-04-05T13:05:21;101377.59;;;8.44;49.72
5679;BME280;2862;52.560;13.566;2023-04-05T13:15:24;101366.06;;;8.44;48.45
5679;BME280;2862;52.560;13.566;2023-04-05T13:25:29;101357.22;;;8.43;48.61
5679;BME280;2862;52.560;13.566;2023-04-05T13:35:32;101347.03;;;8.07;47.67
5679;BME280;2862;52.560;13.566;2023-04-05T13:45:36;101338.91;;;8.51;45.75
5679;BME280;2862;52.560;13.566;2023-04-05T13:55:40;101329.38;;;8.62;45.96
5679;BME280;2862;52.560;13.566;2023-04-05T14:05:44;101309.47;;;9.20;44.16
5679;BME280;2862;52.560;13.566;2023-04-05T14:15:49;101293.38;;;9.34;43.78
5679;BME280;2862;52.560;13.566;2023-04-05T14:25:54;101276.28;;;9.75;43.16
5679;BME280;2862;52.560;13.566;2023-04-05T14:35:56;101274.72;;;9.47;42.59
5679;BME280;2862;52.560;13.566;2023-04-05T14:46:01;101276.00;;;9.41;42.30
5679;BME280;2862;52.560;13.566;2023-04-05T14:56:05;101271.19;;;9.59;41.01
5679;BME280;2862;52.560;13.566;2023-04-05T15:06:11;101269.66;;;8.64;44.58
5679;BME280;2862;52.560;13.566;2023-04-05T15:16:17;101280.34;;;8.37;47.39
5679;BME280;2862;52.560;13.566;2023-04-05T15:26:22;101271.94;;;8.29;47.58
5679;BME280;2862;52.560;13.566;2023-04-05T15:36:25;101266.34;;;7.92;48.45
5679;BME280;2862;52.560;13.566;2023-04-05T15:46:30;101263.50;;;8.22;50.67
5679;BME280;2862;52.560;13.566;2023-04-05T15:56:33;101253.13;;;8.59;48.62
5679;BME280;2862;52.560;13.566;2023-04-05T16:06:38;101251.56;;;8.82;47.09
5679;BME280;2862;52.560;13.566;2023-04-05T16:16:42;101244.53;;;8.81;46.59
5679;BME280;2862;52.560;13.566;2023-04-05T16:26:52;101247.19;;;8.68;46.35
5679;BME280;2862;52.560;13.566;2023-04-05T16:36:55;101246.72;;;8.49;45.56
5679;BME280;2862;52.560;13.566;2023-04-05T16:47:00;101242.16;;;8.37;46.15
5679;BME280;2862;52.560;13.566;2023-04-05T16:57:04;101236.91;;;8.08;46.19
5679;BME280;2862;52.560;13.566;2023-04-05T17:07:08;101235.41;;;8.04;46.83
5679;BME280;2862;52.560;13.566;2023-04-05T17:17:12;101241.41;;;7.79;48.97
5679;BME280;2862;52.560;13.566;2023-04-05T17:27:16;101243.16;;;7.66;49.48
5679;BME280;2862;52.560;13.566;2023-04-05T17:37:19;101241.94;;;7.43;50.60
5679;BME280;2862;52.560;13.566;2023-04-05T17:47:24;101258.84;;;7.42;50.86
5679;BME280;2862;52.560;13.566;2023-04-05T17:57:27;101264.16;;;7.42;51.80
5679;BME280;2862;52.560;13.566;2023-04-05T18:07:35;101263.59;;;7.37;51.65
5679;BME280;2862;52.560;13.566;2023-04-05T18:17:38;101274.41;;;7.34;52.23
5679;BME280;2862;52.560;13.566;2023-04-05T18:27:43;101275.66;;;7.42;52.01
5679;BME280;2862;52.560;13.566;2023-04-05T18:37:46;101285.94;;;7.04;54.11
5679;BME280;2862;52.560;13.566;2023-04-05T18:47:50;101292.41;;;7.00;55.20
5679;BME280;2862;52.560;13.566;2023-04-05T18:57:54;101307.31;;;7.03;55.24
5679;BME280;2862;52.560;13.566;2023-04-05T19:07:58;101308.84;;;7.07;55.56
5679;BME280;2862;52.560;13.566;2023-04-05T19:18:01;101307.03;;;7.07;55.28
5679;BME280;2862;52.560;13.566;2023-04-05T19:28:05;101313.34;;;6.90;56.82
5679;BME280;2862;52.560;13.566;2023-04-05T19:38:09;101307.97;;;6.76;56.42
5679;BME280;2862;52.560;13.566;2023-04-05T19:48:37;101316.50;;;6.67;56.76
5679;BME280;2862;52.560;13.566;2023-04-05T19:58:41;101310.38;;;6.81;56.24
5679;BME280;2862;52.560;13.566;2023-04-05T20:08:46;101305.25;;;6.78;57.11
5679;BME280;2862;52.560;13.566;2023-04-05T20:18:49;101302.22;;;6.54;57.67
5679;BME280;2862;52.560;13.566;2023-04-05T20:28:55;101298.34;;;6.44;58.21
5679;BME280;2862;52.560;13.566;2023-04-05T20:38:59;101296.72;;;6.41;58.37
5679;BME280;2862;52.560;13.566;2023-04-05T20:49:05;101286.03;;;6.27;59.10
5679;BME280;2862;52.560;13.566;2023-04-05T20:59:08;101277.44;;;6.06;60.65
5679;BME280;2862;52.560;13.566;2023-04-05T21:09:13;101281.47;;;6.13;60.49
5679;BME280;2862;52.560;13.566;2023-04-05T21:19:16;101275.59;;;6.08;59.98
5679;BME280;2862;52.560;13.566;2023-04-05T21:29:20;101272.38;;;6.01;60.32
5679;BME280;2862;52.560;13.566;2023-04-05T21:39:23;101274.03;;;6.04;60.50
5679;BME280;2862;52.560;13.566;2023-04-05T21:49:27;101280.34;;;6.01;60.99
5679;BME280;2862;52.560;13.566;2023-04-05T21:59:30;101273.53;;;5.97;61.13
5679;BME280;2862;52.560;13.566;2023-04-05T22:09:36;101269.31;;;5.93;62.76
5679;BME280;2862;52.560;13.566;2023-04-05T22:19:39;101261.72;;;6.03;61.54
5679;BME280;2862;52.560;13.566;2023-04-05T22:29:45;101272.66;;;5.97;62.41
5679;BME280;2862;52.560;13.566;2023-04-05T22:39:49;101271.41;;;5.71;64.18
5679;BME280;2862;52.560;13.566;2023-04-05T22:49:54;101277.75;;;5.35;66.39
5679;BME280;2862;52.560;13.566;2023-04-05T22:59:57;101276.31;;;5.45;65.91
5679;BME280;2862;52.560;13.566;2023-04-05T23:10:02;101278.91;;;5.29;67.99
5679;BME280;2862;52.560;13.566;2023-04-05T23:20:06;101272.53;;;5.33;67.33
5679;BME280;2862;52.560;13.566;2023-04-05T23:30:12;101271.09;;;5.26;67.50
5679;BME280;2862;52.560;13.566;2023-04-05T23:40:15;101261.13;;;5.31;68.01
5679;BME280;2862;52.560;13.566;2023-04-05T23:50:19;101270.59;;;5.02;70.38
